createdAt,value
2023-02-19T00:01:33.398Z,0.21
2023-02-19T00:03:13.176Z,0.22
2023-02-19T00:04:52.915Z,0.2
2023-02-19T00:06:32.682Z,0.2
2023-02-19T00:08:12.451Z,0.23
2023-02-19T00:09:52.242Z,0.22
2023-02-19T00:11:31.998Z,0.21
2023-02-19T00:13:11.762Z,0.18
2023-02-19T00:14:51.543Z,0.19
2023-02-19T00:16:31.288Z,0.22
2023-02-19T00:18:11.059Z,0.23
2023-02-19T00:19:50.829Z,0.23
2023-02-19T00:21:30.649Z,0.21
2023-02-19T00:23:10.348Z,0.21
2023-02-19T00:24:50.124Z,0.24
2023-02-19T00:26:29.900Z,0.23
2023-02-19T00:28:09.653Z,0.21
2023-02-19T00:29:49.429Z,0.22
2023-02-19T00:31:29.208Z,0.2
2023-02-19T00:33:08.967Z,0.23
2023-02-19T00:34:48.748Z,0.23
2023-02-19T00:36:28.513Z,0.26
2023-02-19T00:38:08.266Z,0.25
2023-02-19T00:39:48.051Z,0.24
2023-02-19T00:41:27.801Z,0.25
2023-02-19T00:43:07.561Z,0.24
2023-02-19T00:44:47.343Z,0.22
2023-02-19T00:46:27.101Z,0.22
2023-02-19T00:48:06.865Z,0.24
2023-02-19T00:49:46.631Z,0.28
2023-02-19T00:51:26.398Z,0.25
2023-02-19T00:53:06.177Z,0.27
2023-02-19T00:54:45.933Z,0.27
2023-02-19T00:56:25.718Z,0.25
2023-02-19T00:58:05.496Z,0.23
2023-02-19T00:59:45.234Z,0.27
2023-02-19T01:01:25.018Z,0.26
2023-02-19T01:03:04.781Z,0.26
2023-02-19T01:04:44.529Z,0.3
2023-02-19T01:06:24.370Z,0.26
2023-02-19T01:08:04.087Z,0.25
2023-02-19T01:09:43.856Z,0.25
2023-02-19T01:11:23.607Z,0.25
2023-02-19T01:13:03.374Z,0.23
2023-02-19T01:14:43.146Z,0.24
2023-02-19T01:16:22.906Z,0.25
2023-02-19T01:18:02.676Z,0.27
2023-02-19T01:19:42.442Z,0.29
2023-02-19T01:21:22.296Z,0.3
2023-02-19T01:23:01.963Z,0.27
2023-02-19T01:24:41.748Z,0.31
2023-02-19T01:26:21.536Z,0.3
2023-02-19T01:28:01.281Z,0.3
2023-02-19T01:29:41.064Z,0.28
2023-02-19T01:31:20.799Z,0.26
2023-02-19T01:33:00.581Z,0.27
2023-02-19T01:34:40.350Z,0.28
2023-02-19T01:36:20.118Z,0.31
2023-02-19T01:37:59.899Z,0.3
2023-02-19T01:39:39.645Z,0.28
2023-02-19T01:41:19.420Z,0.25
2023-02-19T01:42:59.190Z,0.27
2023-02-19T01:44:38.956Z,0.26
2023-02-19T01:46:18.714Z,0.27
2023-02-19T01:47:58.488Z,0.28
2023-02-19T01:49:38.251Z,0.28
2023-02-19T01:51:18.031Z,0.29
2023-02-19T01:52:57.864Z,0.28
2023-02-19T01:54:37.557Z,0.31
2023-02-19T01:56:17.338Z,0.3
2023-02-19T01:57:57.173Z,0.31
2023-02-19T01:59:36.861Z,0.32
2023-02-19T02:01:16.695Z,0.3
2023-02-19T02:02:56.450Z,0.32
2023-02-19T02:04:36.148Z,0.31
2023-02-19T02:06:15.960Z,0.3
2023-02-19T02:07:55.691Z,0.3
2023-02-19T02:09:35.521Z,0.27
2023-02-19T02:11:15.223Z,0.27
2023-02-19T02:12:55.015Z,0.22
2023-02-19T02:14:34.762Z,0.24
2023-02-19T02:16:14.541Z,0.24
2023-02-19T02:17:54.372Z,0.25
2023-02-19T02:19:34.058Z,0.24
2023-02-19T02:21:13.828Z,0.21
2023-02-19T02:22:53.601Z,0.23
2023-02-19T02:24:33.377Z,0.22
2023-02-19T02:26:13.213Z,0.22
2023-02-19T02:27:52.935Z,0.25
2023-02-19T02:29:32.694Z,0.26
2023-02-19T02:31:12.452Z,0.25
2023-02-19T02:32:52.199Z,0.24
2023-02-19T02:34:31.987Z,0.25
2023-02-19T02:36:11.744Z,0.24
2023-02-19T02:37:51.506Z,0.24
2023-02-19T02:39:31.277Z,0.23
2023-02-19T02:41:11.049Z,0.28
2023-02-19T02:42:50.886Z,0.24
2023-02-19T02:44:30.586Z,0.24
2023-02-19T02:46:10.343Z,0.23
2023-02-19T02:47:50.108Z,0.21
2023-02-19T02:49:29.888Z,0.26
2023-02-19T02:51:09.661Z,0.25
2023-02-19T02:52:49.407Z,0.26
2023-02-19T02:54:29.186Z,0.26
2023-02-19T02:56:08.958Z,0.21
2023-02-19T02:57:48.717Z,0.25
2023-02-19T02:59:28.484Z,0.23
2023-02-19T03:01:08.248Z,0.26
2023-02-19T03:02:48.005Z,0.23
2023-02-19T03:04:27.791Z,0.26
2023-02-19T03:06:07.551Z,0.24
2023-02-19T03:07:47.386Z,0.24
2023-02-19T03:09:27.111Z,0.27
2023-02-19T03:11:06.845Z,0.26
2023-02-19T03:12:46.633Z,0.28
2023-02-19T03:14:26.443Z,0.29
2023-02-19T03:16:06.152Z,0.31
2023-02-19T03:17:45.921Z,0.28
2023-02-19T03:19:25.688Z,0.3
2023-02-19T03:21:05.454Z,0.3
2023-02-19T03:22:45.224Z,0.3
2023-02-19T03:24:24.983Z,0.3
2023-02-19T03:26:04.784Z,0.3
2023-02-19T03:27:44.528Z,0.3
2023-02-19T03:29:24.301Z,0.29
2023-02-19T03:31:04.069Z,0.3
2023-02-19T03:32:43.886Z,0.28
2023-02-19T03:34:23.597Z,0.28
2023-02-19T03:36:03.368Z,0.3
2023-02-19T03:37:43.132Z,0.3
2023-02-19T03:39:22.893Z,0.32
2023-02-19T03:41:02.666Z,0.3
2023-02-19T03:42:42.459Z,0.29
2023-02-19T03:44:22.215Z,0.28
2023-02-19T03:46:01.964Z,0.29
2023-02-19T03:47:41.720Z,0.3
2023-02-19T03:49:21.493Z,0.31
2023-02-19T03:51:01.274Z,0.3
2023-02-19T03:52:41.031Z,0.3
2023-02-19T03:54:20.807Z,0.31
2023-02-19T03:56:00.584Z,0.32
2023-02-19T03:57:40.336Z,0.32
2023-02-19T03:59:20.122Z,0.3
2023-02-19T04:00:59.877Z,0.3
2023-02-19T04:02:39.635Z,0.29
2023-02-19T04:04:19.448Z,0.3
2023-02-19T04:05:59.183Z,0.3
2023-02-19T04:07:38.941Z,0.28
2023-02-19T04:09:18.712Z,0.27
2023-02-19T04:10:58.523Z,0.27
2023-02-19T04:12:38.244Z,0.28
2023-02-19T04:14:18.011Z,0.28
2023-02-19T04:15:57.797Z,0.3
2023-02-19T04:17:37.544Z,0.3
2023-02-19T04:19:17.316Z,0.29
2023-02-19T04:20:57.114Z,0.3
2023-02-19T04:22:36.900Z,0.28
2023-02-19T04:24:16.656Z,0.29
2023-02-19T04:25:56.466Z,0.29
2023-02-19T04:27:36.153Z,0.26
2023-02-19T04:29:15.930Z,0.3
2023-02-19T04:30:55.690Z,0.28
2023-02-19T04:32:35.436Z,0.28
2023-02-19T04:34:15.211Z,0.28
2023-02-19T04:35:54.989Z,0.25
2023-02-19T04:37:34.770Z,0.26
2023-02-19T04:39:14.518Z,0.27
2023-02-19T04:40:54.356Z,0.28
2023-02-19T04:42:34.042Z,0.24
2023-02-19T04:44:13.817Z,0.27
2023-02-19T04:45:53.579Z,0.26
2023-02-19T04:47:33.395Z,0.24
2023-02-19T04:49:13.118Z,0.3
2023-02-19T04:50:52.910Z,0.28
2023-02-19T04:52:32.659Z,0.28
2023-02-19T04:54:12.424Z,0.25
2023-02-19T04:55:52.189Z,0.24
2023-02-19T04:57:31.959Z,0.27
2023-02-19T04:59:11.724Z,0.26
2023-02-19T05:00:51.482Z,0.25
2023-02-19T05:02:31.263Z,0.24
2023-02-19T05:04:11.077Z,0.27
2023-02-19T05:05:50.803Z,0.25
2023-02-19T05:07:30.562Z,0.26
2023-02-19T05:09:10.328Z,0.25
2023-02-19T05:10:50.104Z,0.26
2023-02-19T05:12:29.870Z,0.27
2023-02-19T05:14:09.677Z,0.28
2023-02-19T05:15:49.386Z,0.24
2023-02-19T05:17:29.161Z,0.29
2023-02-19T05:19:08.937Z,0.28
2023-02-19T05:20:48.702Z,0.29
2023-02-19T05:22:28.469Z,0.33
2023-02-19T05:24:08.238Z,0.34
2023-02-19T05:25:48.006Z,0.41
2023-02-19T05:27:27.777Z,0.44
2023-02-19T05:29:07.532Z,0.51
2023-02-19T05:30:47.312Z,0.58
2023-02-19T05:32:27.077Z,0.73
2023-02-19T05:34:06.827Z,0.88
2023-02-19T05:35:46.606Z,1.16
2023-02-19T05:37:26.366Z,1.39
2023-02-19T05:39:06.128Z,1.71
2023-02-19T05:40:45.915Z,2
2023-02-19T05:42:25.662Z,2.33
2023-02-19T05:44:05.446Z,2.76
2023-02-19T05:45:45.202Z,3.46
2023-02-19T05:47:24.978Z,4.38
2023-02-19T05:49:04.761Z,5.7
2023-02-19T05:50:44.497Z,7.41
2023-02-19T05:52:24.321Z,9.37
2023-02-19T05:54:04.050Z,12.24
2023-02-19T05:55:43.813Z,16.43
2023-02-19T05:57:23.579Z,21.69
2023-02-19T05:59:03.352Z,25.64
2023-02-19T06:00:43.120Z,26.82
2023-02-19T06:02:22.899Z,26.86
2023-02-19T06:04:02.644Z,26.89
2023-02-19T06:05:42.411Z,26.92
2023-02-19T06:07:22.178Z,26.94
2023-02-19T06:09:01.951Z,26.94
2023-02-19T06:10:41.727Z,26.95
2023-02-19T06:12:21.523Z,26.93
2023-02-19T06:14:01.247Z,26.95
2023-02-19T06:15:41.041Z,26.95
2023-02-19T06:17:20.794Z,26.96
2023-02-19T06:19:00.554Z,26.96
2023-02-19T06:20:40.334Z,26.97
2023-02-19T06:22:20.253Z,26.96
2023-02-19T06:23:59.883Z,26.98
2023-02-19T06:25:39.642Z,26.99
2023-02-19T06:27:19.387Z,27
2023-02-19T06:28:59.163Z,27.01
2023-02-19T06:30:38.936Z,27.01
2023-02-19T06:32:18.693Z,27.03
2023-02-19T06:33:58.465Z,27.02
2023-02-19T06:35:38.233Z,27.04
2023-02-19T06:37:18.005Z,27.05
2023-02-19T06:38:57.768Z,27.06
2023-02-19T06:40:37.544Z,27.08
2023-02-19T06:42:17.315Z,27.1
2023-02-19T06:43:57.072Z,27.11
2023-02-19T06:45:36.851Z,27.13
2023-02-19T06:47:16.621Z,27.15
2023-02-19T06:48:56.392Z,27.18
2023-02-19T06:50:36.153Z,27.2
2023-02-19T06:52:15.934Z,27.19
2023-02-19T06:53:55.692Z,27.25
2023-02-19T06:55:35.466Z,27.28
2023-02-19T06:57:15.234Z,27.31
2023-02-19T06:58:55.003Z,27.33
2023-02-19T07:00:34.788Z,71.08
2023-02-19T07:02:14.556Z,39.89
2023-02-19T07:03:54.314Z,27.49
2023-02-19T07:05:34.075Z,27.56
2023-02-19T07:07:13.845Z,27.61
2023-02-19T07:08:53.631Z,27.69
2023-02-19T07:10:33.399Z,27.76
2023-02-19T07:12:13.149Z,27.85
2023-02-19T07:13:52.969Z,27.92
2023-02-19T07:15:32.713Z,28
2023-02-19T07:17:12.476Z,28.06
2023-02-19T07:18:52.257Z,28.15
2023-02-19T07:20:32.008Z,28.18
2023-02-19T07:22:11.844Z,28.23
2023-02-19T07:23:51.581Z,28.29
2023-02-19T07:25:31.396Z,28.36
2023-02-19T07:27:11.180Z,28.46
2023-02-19T07:28:50.916Z,28.57
2023-02-19T07:30:30.652Z,28.7
2023-02-19T07:32:10.450Z,28.81
2023-02-19T07:33:50.178Z,28.9
2023-02-19T07:35:29.996Z,28.97
2023-02-19T07:37:09.707Z,29.03
2023-02-19T07:38:49.504Z,29.1
2023-02-19T07:40:29.242Z,29.15
2023-02-19T07:42:09.048Z,29.22
2023-02-19T07:43:48.798Z,29.08
2023-02-19T07:45:28.561Z,29.34
2023-02-19T07:47:08.341Z,29.38
2023-02-19T07:48:48.115Z,29.44
2023-02-19T07:50:27.888Z,29.51
2023-02-19T07:52:07.653Z,29.58
2023-02-19T07:53:47.428Z,29.63
2023-02-19T07:55:27.193Z,29.68
2023-02-19T07:57:06.962Z,29.69
2023-02-19T07:58:46.734Z,29.72
2023-02-19T08:00:26.546Z,29.75
2023-02-19T08:02:06.275Z,35.16
2023-02-19T08:03:46.044Z,82.86
2023-02-19T08:05:25.826Z,83.37
2023-02-19T08:07:05.615Z,83.25
2023-02-19T08:08:45.446Z,83.24
2023-02-19T08:10:25.150Z,83.5
2023-02-19T08:12:04.946Z,83.9
2023-02-19T08:13:44.652Z,84.19
2023-02-19T08:15:24.443Z,84.49
2023-02-19T08:17:04.265Z,84.67
2023-02-19T08:18:43.973Z,85.04
2023-02-19T08:20:23.825Z,85.43
2023-02-19T08:22:03.534Z,84.9
2023-02-19T08:23:43.380Z,84.8
2023-02-19T08:25:23.098Z,85.53
2023-02-19T08:27:02.882Z,84.89
2023-02-19T08:28:42.596Z,84.87
2023-02-19T08:30:22.442Z,84.75
2023-02-19T08:32:02.121Z,84.42
2023-02-19T08:33:41.905Z,84.21
2023-02-19T08:35:21.682Z,83.76
2023-02-19T08:37:01.472Z,83.2
2023-02-19T08:38:41.282Z,83.48
2023-02-19T08:40:21.005Z,83.57
2023-02-19T08:42:00.770Z,83.76
2023-02-19T08:43:40.534Z,85.2
2023-02-19T08:45:20.296Z,84.87
2023-02-19T08:47:00.067Z,84.43
2023-02-19T08:48:39.854Z,85.12
2023-02-19T08:50:19.616Z,85.57
2023-02-19T08:51:59.375Z,87.1
2023-02-19T08:53:39.183Z,86.92
2023-02-19T08:55:18.914Z,85.32
2023-02-19T08:56:58.681Z,87.58
2023-02-19T08:58:38.522Z,87.34
2023-02-19T09:00:18.312Z,86.77
2023-02-19T09:01:57.996Z,86.92
2023-02-19T09:03:37.857Z,88.6
2023-02-19T09:05:17.603Z,87.91
2023-02-19T09:06:57.315Z,85.58
2023-02-19T09:08:37.083Z,88.42
2023-02-19T09:10:16.846Z,90.04
2023-02-19T09:11:56.614Z,86.55
2023-02-19T09:13:36.386Z,90.98
2023-02-19T09:15:16.162Z,86.97
2023-02-19T09:16:55.932Z,86.49
2023-02-19T09:18:35.699Z,87.12
2023-02-19T09:20:15.461Z,85.91
2023-02-19T09:21:55.233Z,86.62
2023-02-19T09:23:35.024Z,86.06
2023-02-19T09:25:14.775Z,84.84
2023-02-19T09:26:54.604Z,84.59
2023-02-19T09:28:34.370Z,86.46
2023-02-19T09:30:14.126Z,87.31
2023-02-19T09:31:53.890Z,87.03
2023-02-19T09:33:33.627Z,88.66
2023-02-19T09:35:13.498Z,87.48
2023-02-19T09:36:53.170Z,87.76
2023-02-19T09:38:32.951Z,90.99
2023-02-19T09:40:12.723Z,87.26
2023-02-19T09:41:52.484Z,87.12
2023-02-19T09:43:32.267Z,86.99
2023-02-19T09:45:12.023Z,89.65
2023-02-19T09:46:51.886Z,88.6
2023-02-19T09:48:31.562Z,86.15
2023-02-19T09:50:11.342Z,86.83
2023-02-19T09:51:51.114Z,87.1
2023-02-19T09:53:30.904Z,87.26
2023-02-19T09:55:10.640Z,87.24
2023-02-19T09:56:50.415Z,91.36
2023-02-19T09:58:30.194Z,90.94
2023-02-19T10:00:09.953Z,90.09
2023-02-19T10:01:49.735Z,90
2023-02-19T10:03:29.493Z,86.75
2023-02-19T10:05:09.273Z,87.04
2023-02-19T10:06:49.064Z,84.13
2023-02-19T10:08:28.826Z,85.77
2023-02-19T10:10:08.569Z,91.25
2023-02-19T10:11:48.352Z,86.67
2023-02-19T10:13:28.112Z,90.94
2023-02-19T10:15:07.902Z,88.93
2023-02-19T10:16:47.667Z,89.11
2023-02-19T10:18:27.434Z,89.39
2023-02-19T10:20:07.250Z,83.73
2023-02-19T10:21:46.968Z,86.14
2023-02-19T10:23:26.745Z,86.4
2023-02-19T10:25:06.524Z,90.35
2023-02-19T10:26:46.278Z,90.34
2023-02-19T10:28:26.059Z,89.34
2023-02-19T10:30:05.808Z,85.76
2023-02-19T10:31:45.640Z,89.21
2023-02-19T10:33:25.367Z,88.62
2023-02-19T10:35:05.136Z,84.99
2023-02-19T10:36:44.926Z,89.46
2023-02-19T10:38:24.667Z,89.22
2023-02-19T10:40:04.441Z,89.61
2023-02-19T10:41:44.212Z,85.1
2023-02-19T10:43:24.064Z,84.85
2023-02-19T10:45:03.805Z,84.76
2023-02-19T10:46:43.530Z,85.89
2023-02-19T10:48:23.296Z,90.59
2023-02-19T10:50:03.151Z,90.17
2023-02-19T10:51:42.859Z,90.49
2023-02-19T10:53:22.614Z,84.78
2023-02-19T10:55:02.379Z,91.03
2023-02-19T10:56:42.140Z,90.36
2023-02-19T10:58:21.950Z,89.87
2023-02-19T11:00:01.754Z,83.24
2023-02-19T11:01:41.588Z,84.44
2023-02-19T11:03:21.322Z,86.88
2023-02-19T11:05:00.989Z,90.02
2023-02-19T11:06:40.756Z,91.84
2023-02-19T11:08:20.527Z,89.65
2023-02-19T11:10:00.310Z,91.3
2023-02-19T11:11:40.067Z,86.07
2023-02-19T11:13:19.871Z,85.84
2023-02-19T11:14:59.609Z,86.42
2023-02-19T11:16:39.399Z,88
2023-02-19T11:18:19.171Z,91.74
2023-02-19T11:19:58.922Z,91.52
2023-02-19T11:21:38.692Z,87.07
2023-02-19T11:23:18.453Z,90.59
2023-02-19T11:24:58.233Z,90.12
2023-02-19T11:26:38.015Z,89.79
2023-02-19T11:28:17.776Z,89.6
2023-02-19T11:29:57.533Z,89.39
2023-02-19T11:31:37.313Z,85.54
2023-02-19T11:33:17.084Z,85.36
2023-02-19T11:34:56.841Z,86.2
2023-02-19T11:36:36.654Z,88.53
2023-02-19T11:38:16.391Z,88.79
2023-02-19T11:39:56.178Z,86.19
2023-02-19T11:41:35.931Z,85.87
2023-02-19T11:43:15.719Z,89.88
2023-02-19T11:44:55.504Z,90.08
2023-02-19T11:46:35.258Z,89.67
2023-02-19T11:48:15.006Z,88.93
2023-02-19T11:49:54.777Z,87.47
2023-02-19T11:51:34.558Z,87.97
2023-02-19T11:53:14.340Z,87.88
2023-02-19T11:54:54.109Z,88.75
2023-02-19T11:56:33.855Z,84.32
2023-02-19T11:58:13.693Z,84.53
2023-02-19T11:59:53.395Z,84.81
2023-02-19T12:01:33.240Z,91.09
2023-02-19T12:03:12.960Z,90.45
2023-02-19T12:04:52.703Z,90.33
2023-02-19T12:06:32.590Z,90.31
2023-02-19T12:08:12.281Z,84.07
2023-02-19T12:09:52.049Z,84.76
2023-02-19T12:11:31.790Z,84.89
2023-02-19T12:13:11.559Z,85.37
2023-02-19T12:14:51.342Z,90.33
2023-02-19T12:16:31.095Z,85.32
2023-02-19T12:18:10.876Z,84.66
2023-02-19T12:19:50.619Z,85.55
2023-02-19T12:21:30.405Z,85.98
2023-02-19T12:23:10.188Z,86.22
2023-02-19T12:24:49.965Z,86.42
2023-02-19T12:26:29.730Z,86.72
2023-02-19T12:28:09.600Z,87.57
2023-02-19T12:29:49.265Z,87.97
2023-02-19T12:31:29.024Z,87.9
2023-02-19T12:33:08.815Z,87.77
2023-02-19T12:34:48.565Z,87.54
2023-02-19T12:36:28.368Z,87.49
2023-02-19T12:38:08.106Z,87.7
2023-02-19T12:39:47.897Z,87.81
2023-02-19T12:41:27.669Z,87.51
2023-02-19T12:43:07.424Z,88.24
2023-02-19T12:44:47.182Z,87.99
2023-02-19T12:46:26.973Z,88.83
2023-02-19T12:48:06.738Z,89.71
2023-02-19T12:49:46.505Z,91.92
2023-02-19T12:51:26.278Z,88.57
2023-02-19T12:53:06.051Z,86.03
2023-02-19T12:54:45.820Z,86.94
2023-02-19T12:56:25.661Z,85.42
2023-02-19T12:58:05.368Z,91.59
2023-02-19T12:59:45.139Z,90.86
2023-02-19T13:01:24.898Z,83.98
2023-02-19T13:03:04.663Z,85.67
2023-02-19T13:04:44.439Z,84.75
2023-02-19T13:06:24.211Z,84.44
2023-02-19T13:08:04.059Z,89.54
2023-02-19T13:09:43.758Z,84.43
2023-02-19T13:11:23.543Z,84.47
2023-02-19T13:13:03.369Z,88.78
2023-02-19T13:14:43.062Z,86.58
2023-02-19T13:16:22.837Z,91.85
2023-02-19T13:18:02.638Z,85.35
2023-02-19T13:19:42.380Z,88.69
2023-02-19T13:21:22.152Z,85.96
2023-02-19T13:23:01.928Z,91.06
2023-02-19T13:24:41.687Z,91.43
2023-02-19T13:26:21.463Z,85.42
2023-02-19T13:28:01.235Z,86.17
2023-02-19T13:29:41.004Z,91.19
2023-02-19T13:31:20.777Z,90.5
2023-02-19T13:33:00.555Z,90.03
2023-02-19T13:34:40.307Z,89.86
2023-02-19T13:36:20.077Z,89.67
2023-02-19T13:37:59.860Z,89.89
2023-02-19T13:39:39.667Z,89.75
2023-02-19T13:41:19.388Z,89.08
2023-02-19T13:42:59.164Z,89.49
2023-02-19T13:44:38.937Z,89.42
2023-02-19T13:46:18.714Z,85.48
2023-02-19T13:47:58.468Z,85.84
2023-02-19T13:49:38.244Z,89.03
2023-02-19T13:51:18.020Z,87.84
2023-02-19T13:52:57.854Z,85.47
2023-02-19T13:54:37.576Z,89.11
2023-02-19T13:56:17.318Z,88.75
2023-02-19T13:57:57.167Z,87.03
2023-02-19T13:59:36.884Z,86.21
2023-02-19T14:01:16.647Z,83.86
2023-02-19T14:02:56.404Z,84.27
2023-02-19T14:04:36.176Z,84.67
2023-02-19T14:06:15.952Z,85.01
2023-02-19T14:07:55.705Z,85.05
2023-02-19T14:09:35.512Z,85.83
2023-02-19T14:11:15.266Z,89.66
2023-02-19T14:12:55.033Z,87.01
2023-02-19T14:14:34.786Z,84.27
2023-02-19T14:16:14.567Z,83.75
2023-02-19T14:17:54.331Z,83.26
2023-02-19T14:19:34.116Z,83.14
2023-02-19T14:21:13.890Z,82.94
2023-02-19T14:22:53.687Z,82.85
2023-02-19T14:24:33.402Z,90.4
2023-02-19T14:26:13.185Z,82.68
2023-02-19T14:27:52.956Z,83.17
2023-02-19T14:29:32.726Z,84.97
2023-02-19T14:31:12.555Z,90.58
2023-02-19T14:32:52.275Z,86.59
2023-02-19T14:34:32.028Z,86.72
2023-02-19T14:36:11.791Z,86.2
2023-02-19T14:37:51.649Z,85.77
2023-02-19T14:39:31.342Z,85.7
2023-02-19T14:41:11.134Z,85.87
2023-02-19T14:42:50.897Z,86.14
2023-02-19T14:44:30.658Z,90.82
2023-02-19T14:46:10.428Z,90.11
2023-02-19T14:47:50.197Z,87.73
2023-02-19T14:49:29.971Z,89.2
2023-02-19T14:51:09.746Z,88.99
2023-02-19T14:52:49.523Z,89.09
2023-02-19T14:54:29.272Z,88.58
2023-02-19T14:56:09.055Z,83.27
2023-02-19T14:57:48.826Z,88.72
2023-02-19T14:59:28.610Z,88.47
2023-02-19T15:01:08.361Z,86.6
2023-02-19T15:02:48.126Z,88.75
2023-02-19T15:04:27.905Z,85.18
2023-02-19T15:06:07.680Z,85.55
2023-02-19T15:07:47.436Z,87.33
2023-02-19T15:09:27.219Z,86.16
2023-02-19T15:11:06.973Z,86.39
2023-02-19T15:12:46.756Z,86.12
2023-02-19T15:14:26.527Z,85.86
2023-02-19T15:16:06.299Z,85.4
2023-02-19T15:17:46.060Z,84.88
2023-02-19T15:19:25.897Z,83.66
2023-02-19T15:21:05.591Z,82.86
2023-02-19T15:22:45.371Z,87.26
2023-02-19T15:24:25.148Z,86.93
2023-02-19T15:26:04.926Z,86.62
2023-02-19T15:27:44.748Z,85.01
2023-02-19T15:29:24.461Z,84.18
2023-02-19T15:31:04.232Z,87.25
2023-02-19T15:32:44.035Z,86.24
2023-02-19T15:34:23.774Z,86.45
2023-02-19T15:36:03.534Z,87.81
2023-02-19T15:37:43.339Z,87.6
2023-02-19T15:39:23.188Z,87.06
2023-02-19T15:41:02.867Z,86.63
2023-02-19T15:42:42.653Z,84.69
2023-02-19T15:44:22.397Z,83.34
2023-02-19T15:46:02.230Z,82.76
2023-02-19T15:47:41.965Z,82.84
2023-02-19T15:49:21.697Z,80.93
2023-02-19T15:51:01.464Z,79.91
2023-02-19T15:52:41.256Z,82.6
2023-02-19T15:54:21.049Z,85.14
2023-02-19T15:56:00.785Z,84.47
2023-02-19T15:57:40.561Z,82.69
2023-02-19T15:59:20.349Z,77.92
2023-02-19T16:01:00.130Z,70.61
2023-02-19T16:02:39.875Z,57.71
2023-02-19T16:04:19.694Z,45.66
2023-02-19T16:05:59.416Z,36.65
2023-02-19T16:07:39.168Z,35.4
2023-02-19T16:09:18.999Z,34.98
2023-02-19T16:10:58.715Z,34.79
2023-02-19T16:12:38.493Z,29.1
2023-02-19T16:14:18.257Z,28.53
2023-02-19T16:15:58.042Z,28.47
2023-02-19T16:17:37.794Z,28.44
2023-02-19T16:19:17.609Z,28.4
2023-02-19T16:20:57.339Z,28.36
2023-02-19T16:22:37.098Z,29.83
2023-02-19T16:24:16.877Z,32.75
2023-02-19T16:25:56.630Z,28.24
2023-02-19T16:27:36.399Z,28.2
2023-02-19T16:29:16.172Z,28.16
2023-02-19T16:30:55.964Z,28.13
2023-02-19T16:32:35.782Z,28.09
2023-02-19T16:34:15.558Z,28.05
2023-02-19T16:35:55.246Z,28.02
2023-02-19T16:37:35.006Z,28
2023-02-19T16:39:14.930Z,27.95
2023-02-19T16:40:54.563Z,27.93
2023-02-19T16:42:34.312Z,27.9
2023-02-19T16:44:14.168Z,27.82
2023-02-19T16:45:53.838Z,27.71
2023-02-19T16:47:33.684Z,25.18
2023-02-19T16:49:13.383Z,19.71
2023-02-19T16:50:53.152Z,15.37
2023-02-19T16:52:32.926Z,12.01
2023-02-19T16:54:12.787Z,9.39
2023-02-19T16:55:52.444Z,7.27
2023-02-19T16:57:32.248Z,5.67
2023-02-19T16:59:11.998Z,4.37
2023-02-19T17:00:51.783Z,3.27
2023-02-19T17:02:31.588Z,2.56
2023-02-19T17:04:11.276Z,2
2023-02-19T17:05:51.066Z,1.55
2023-02-19T17:07:30.851Z,1.22
2023-02-19T17:09:10.583Z,0.92
2023-02-19T17:10:50.350Z,0.73
2023-02-19T17:12:30.121Z,0.64
2023-02-19T17:14:09.897Z,0.51
2023-02-19T17:15:49.654Z,0.49
2023-02-19T17:17:29.433Z,0.42
2023-02-19T17:19:09.191Z,0.38
2023-02-19T17:20:48.972Z,0.32
2023-02-19T17:22:28.748Z,0.31
2023-02-19T17:24:08.490Z,0.26
2023-02-19T17:25:48.266Z,0.22
2023-02-19T17:27:28.023Z,0.19
2023-02-19T17:29:07.798Z,0.23
2023-02-19T17:30:47.559Z,0.19
2023-02-19T17:32:27.331Z,0.17
2023-02-19T17:34:07.119Z,0.22
2023-02-19T17:35:46.873Z,0.17
2023-02-19T17:37:26.646Z,0.21
2023-02-19T17:39:06.393Z,0.17
2023-02-19T17:40:46.153Z,0.2
2023-02-19T17:42:25.926Z,0.16
2023-02-19T17:44:05.722Z,0.17
2023-02-19T17:45:45.464Z,0.21
2023-02-19T17:47:25.231Z,0.17
2023-02-19T17:49:05.026Z,0.2
2023-02-19T17:50:44.766Z,0.16
2023-02-19T17:52:24.536Z,0.2
2023-02-19T17:54:04.297Z,0.17
2023-02-19T17:55:44.133Z,0.21
2023-02-19T17:57:23.846Z,0.21
2023-02-19T17:59:03.658Z,0.19
2023-02-19T18:00:43.425Z,0.19
2023-02-19T18:02:23.140Z,0.18
2023-02-19T18:04:02.906Z,0.17
2023-02-19T18:05:42.675Z,0.19
2023-02-19T18:07:22.449Z,0.16
2023-02-19T18:09:02.202Z,0.21
2023-02-19T18:10:42.062Z,0.17
2023-02-19T18:12:21.733Z,0.16
2023-02-19T18:14:01.512Z,0.21
2023-02-19T18:15:41.281Z,0.19
2023-02-19T18:17:21.083Z,0.16
2023-02-19T18:19:00.825Z,0.19
2023-02-19T18:20:40.576Z,0.21
2023-02-19T18:22:20.444Z,0.16
2023-02-19T18:24:00.175Z,0.18
2023-02-19T18:25:40.043Z,0.17
2023-02-19T18:27:19.663Z,0.17
2023-02-19T18:28:59.486Z,0.21
2023-02-19T18:30:39.179Z,0.16
2023-02-19T18:32:18.955Z,0.16
2023-02-19T18:33:58.717Z,0.21
2023-02-19T18:35:38.487Z,0.2
2023-02-19T18:37:18.253Z,0.21
2023-02-19T18:38:58.028Z,0.18
2023-02-19T18:40:37.810Z,0.19
2023-02-19T18:42:17.561Z,0.2
2023-02-19T18:43:57.309Z,0.16
2023-02-19T18:45:37.126Z,0.17
2023-02-19T18:47:16.878Z,0.17
2023-02-19T18:48:56.624Z,0.17
2023-02-19T18:50:36.381Z,0.17
2023-02-19T18:52:16.224Z,0.16
2023-02-19T18:53:55.932Z,0.21
2023-02-19T18:55:35.684Z,0.2
2023-02-19T18:57:15.459Z,0.19
2023-02-19T18:58:55.231Z,0.17
2023-02-19T19:00:35.010Z,0.19
2023-02-19T19:02:14.756Z,0.21
2023-02-19T19:03:54.604Z,0.21
2023-02-19T19:05:34.339Z,0.21
2023-02-19T19:07:14.077Z,0.21
2023-02-19T19:08:53.821Z,0.16
2023-02-19T19:10:33.587Z,0.16
2023-02-19T19:12:13.367Z,0.19
2023-02-19T19:13:53.122Z,0.2
2023-02-19T19:15:32.910Z,0.16
2023-02-19T19:17:12.690Z,0.19
2023-02-19T19:18:52.469Z,0.16
2023-02-19T19:20:32.204Z,0.19
2023-02-19T19:22:11.987Z,0.21
2023-02-19T19:23:51.752Z,0.2
2023-02-19T19:25:31.515Z,0.16
2023-02-19T19:27:11.279Z,0.18
2023-02-19T19:28:51.047Z,0.19
2023-02-19T19:30:30.816Z,0.16
2023-02-19T19:32:10.581Z,0.21
2023-02-19T19:33:50.358Z,0.19
2023-02-19T19:35:30.114Z,0.17
2023-02-19T19:37:09.932Z,0.17
2023-02-19T19:38:49.638Z,0.19
2023-02-19T19:40:29.405Z,0.17
2023-02-19T19:42:09.177Z,0.17
2023-02-19T19:43:48.948Z,0.21
2023-02-19T19:45:28.764Z,0.17
2023-02-19T19:47:08.485Z,0.16
2023-02-19T19:48:48.297Z,0.17
2023-02-19T19:50:28.025Z,0.17
2023-02-19T19:52:07.800Z,0.18
2023-02-19T19:53:47.554Z,0.2
2023-02-19T19:55:27.323Z,0.17
2023-02-19T19:57:07.079Z,0.16
2023-02-19T19:58:46.857Z,0.19
2023-02-19T20:00:26.610Z,0.16
2023-02-19T20:02:06.390Z,0.16
2023-02-19T20:03:46.146Z,0.16
2023-02-19T20:05:25.915Z,0.21
2023-02-19T20:07:05.687Z,0.17
2023-02-19T20:08:45.469Z,0.18
2023-02-19T20:10:25.288Z,0.2
2023-02-19T20:12:05.000Z,0.2
2023-02-19T20:13:44.884Z,0.17
2023-02-19T20:15:24.517Z,0.15
2023-02-19T20:17:04.288Z,0.16
2023-02-19T20:18:44.056Z,0.19
2023-02-19T20:20:23.830Z,0.2
2023-02-19T20:22:03.584Z,0.19
2023-02-19T20:23:43.399Z,0.21
2023-02-19T20:25:23.178Z,0.17
2023-02-19T20:27:02.960Z,0.19
2023-02-19T20:28:42.663Z,0.16
2023-02-19T20:30:22.486Z,0.19
2023-02-19T20:32:02.217Z,0.16
2023-02-19T20:33:41.975Z,0.2
2023-02-19T20:35:21.730Z,0.15
2023-02-19T20:37:01.500Z,0.17
2023-02-19T20:38:41.267Z,0.16
2023-02-19T20:40:21.062Z,0.16
2023-02-19T20:42:00.788Z,0.18
2023-02-19T20:43:40.577Z,0.16
2023-02-19T20:45:20.334Z,0.18
2023-02-19T20:47:00.127Z,0.17
2023-02-19T20:48:39.892Z,0.17
2023-02-19T20:50:19.634Z,0.16
2023-02-19T20:51:59.452Z,0.18
2023-02-19T20:53:39.180Z,0.18
2023-02-19T20:55:18.937Z,0.16
2023-02-19T20:56:58.699Z,0.18
2023-02-19T20:58:38.466Z,0.21
2023-02-19T21:00:18.233Z,0.16
2023-02-19T21:01:58.013Z,0.19
2023-02-19T21:03:37.799Z,0.16
2023-02-19T21:05:17.546Z,0.17
2023-02-19T21:06:57.313Z,0.18
2023-02-19T21:08:37.072Z,0.17
2023-02-19T21:10:16.855Z,0.17
2023-02-19T21:11:56.663Z,0.19
2023-02-19T21:13:36.377Z,0.19
2023-02-19T21:15:16.212Z,0.16
2023-02-19T21:16:55.915Z,0.17
2023-02-19T21:18:35.682Z,0.16
2023-02-19T21:20:15.434Z,0.16
2023-02-19T21:21:55.229Z,0.18
2023-02-19T21:23:34.975Z,0.19
2023-02-19T21:25:14.738Z,0.2
2023-02-19T21:26:54.518Z,0.17
2023-02-19T21:28:34.283Z,0.17
2023-02-19T21:30:14.035Z,0.15
2023-02-19T21:31:53.853Z,0.17
2023-02-19T21:33:33.580Z,0.17
2023-02-19T21:35:13.371Z,0.17
2023-02-19T21:36:53.111Z,0.16
2023-02-19T21:38:32.891Z,0.17
2023-02-19T21:40:12.651Z,0.15
2023-02-19T21:41:52.434Z,0.17
2023-02-19T21:43:32.187Z,0.16
2023-02-19T21:45:12.091Z,0.18
2023-02-19T21:46:51.724Z,0.15
2023-02-19T21:48:31.508Z,0.17
2023-02-19T21:50:11.272Z,0.17
2023-02-19T21:51:51.018Z,0.19